createdAt,value
2019-04-03T00:00:17.546Z,9.33
2019-04-03T00:02:46.116Z,7.27
2019-04-03T00:05:14.687Z,7.33
2019-04-03T00:07:43.528Z,10.03
2019-04-03T00:10:12.701Z,11.87
2019-04-03T00:12:41.374Z,11.30
2019-04-03T00:15:11.699Z,9.73
2019-04-03T00:17:40.986Z,11.10
2019-04-03T00:20:09.981Z,8.93
2019-04-03T00:22:38.514Z,14.30
2019-04-03T00:25:07.410Z,9.77
2019-04-03T00:27:36.166Z,11.07
2019-04-03T00:30:06.384Z,10.37
2019-04-03T00:32:35.060Z,8.73
2019-04-03T00:35:04.793Z,10.53
2019-04-03T00:37:33.439Z,10.87
2019-04-03T00:40:02.045Z,10.53
2019-04-03T00:42:30.741Z,9.37
2019-04-03T00:44:59.459Z,11.90
2019-04-03T00:47:28.164Z,11.07
2019-04-03T00:49:57.145Z,12.70
2019-04-03T00:52:27.502Z,10.63
2019-04-03T00:54:57.103Z,15.23
2019-04-03T00:57:26.316Z,13.33
2019-04-03T00:59:56.414Z,10.80
2019-04-03T01:02:27.824Z,11.40
2019-04-03T01:04:58.099Z,10.40
2019-04-03T01:07:28.810Z,9.10
2019-04-03T01:09:57.799Z,10.90
2019-04-03T01:12:30.622Z,10.87
2019-04-03T01:14:58.294Z,10.13
2019-04-03T01:17:26.853Z,12.73
2019-04-03T01:19:55.411Z,14.00
2019-04-03T01:22:23.973Z,11.30
2019-04-03T01:24:52.651Z,12.83
2019-04-03T01:27:21.315Z,9.23
2019-04-03T01:29:49.978Z,11.37
2019-04-03T01:32:18.632Z,12.97
2019-04-03T01:34:47.947Z,9.07
2019-04-03T01:37:18.159Z,9.70
2019-04-03T01:39:47.225Z,14.00
2019-04-03T01:42:15.809Z,13.10
2019-04-03T01:44:44.571Z,12.13
2019-04-03T01:47:13.227Z,11.40
2019-04-03T01:49:41.892Z,11.30
2019-04-03T01:52:10.451Z,11.10
2019-04-03T01:54:40.192Z,11.33
2019-04-03T01:57:08.860Z,8.73
2019-04-03T01:59:37.948Z,8.70
2019-04-03T02:02:08.477Z,9.47
2019-04-03T02:04:37.469Z,10.33
2019-04-03T02:07:06.037Z,10.00
2019-04-03T02:09:34.786Z,11.50
2019-04-03T02:12:03.464Z,15.00
2019-04-03T02:14:32.112Z,8.77
2019-04-03T02:17:00.683Z,10.63
2019-04-03T02:19:29.241Z,9.60
2019-04-03T02:21:58.518Z,8.90
2019-04-03T02:24:27.881Z,10.53
2019-04-03T02:26:56.444Z,9.27
2019-04-03T02:29:25.158Z,11.90
2019-04-03T02:31:53.975Z,11.70
2019-04-03T02:34:22.493Z,11.33
2019-04-03T02:36:51.197Z,14.37
2019-04-03T02:39:19.849Z,15.33
2019-04-03T02:41:48.814Z,15.73
2019-04-03T02:44:19.145Z,11.83
2019-04-03T02:46:48.022Z,9.77
2019-04-03T02:49:16.545Z,10.83
2019-04-03T02:51:46.043Z,11.77
2019-04-03T02:54:26.466Z,12.90
2019-04-03T02:56:56.275Z,14.13
2019-04-03T02:59:25.959Z,12.53
2019-04-03T03:01:55.571Z,11.80
2019-04-03T03:04:24.889Z,11.07
2019-04-03T03:06:53.895Z,12.83
2019-04-03T03:09:22.824Z,12.93
2019-04-03T03:11:54.870Z,18.07
2019-04-03T03:14:22.876Z,11.20
2019-04-03T03:16:52.073Z,13.97
2019-04-03T03:19:22.341Z,14.03
2019-04-03T03:21:54.644Z,14.87
2019-04-03T03:24:23.933Z,11.23
2019-04-03T03:26:52.971Z,12.23
2019-04-03T03:29:25.396Z,10.93
2019-04-03T03:32:10.914Z,12.30
2019-04-03T03:34:47.472Z,13.57
2019-04-03T03:37:00.144Z,12.53
2019-04-03T03:39:27.741Z,11.10
2019-04-03T03:41:58.189Z,15.07
2019-04-03T03:44:28.278Z,11.13
2019-04-03T03:47:01.466Z,14.73
2019-04-03T03:49:29.124Z,13.00
2019-04-03T03:52:02.608Z,11.47
2019-04-03T03:54:30.788Z,10.80
2019-04-03T03:57:04.349Z,12.47
2019-04-03T03:59:30.844Z,11.97
2019-04-03T04:02:03.241Z,16.23
2019-04-03T04:04:30.606Z,11.90
2019-04-03T04:07:02.040Z,11.83
2019-04-03T04:09:30.343Z,16.60
2019-04-03T04:11:59.289Z,12.03
2019-04-03T04:14:28.321Z,13.90
2019-04-03T04:16:57.375Z,17.30
2019-04-03T04:19:30.196Z,13.67
2019-04-03T04:21:57.458Z,25.43
2019-04-03T04:24:28.298Z,18.63
2019-04-03T04:26:57.005Z,16.43
2019-04-03T04:29:25.653Z,22.43
2019-04-03T04:31:54.331Z,30.90
2019-04-03T04:34:23.002Z,30.47
2019-04-03T04:36:53.076Z,19.60
2019-04-03T04:39:22.163Z,26.03
2019-04-03T04:41:50.812Z,19.27
2019-04-03T04:44:19.409Z,20.40
2019-04-03T04:46:48.108Z,17.30
2019-04-03T04:49:16.719Z,17.80
2019-04-03T04:51:45.305Z,18.53
2019-04-03T04:54:13.949Z,14.37
2019-04-03T04:56:43.043Z,18.77
2019-04-03T04:59:13.530Z,15.23
2019-04-03T05:01:42.349Z,19.47
2019-04-03T05:04:11.053Z,17.07
2019-04-03T05:06:39.720Z,16.33
2019-04-03T05:09:08.501Z,16.80
2019-04-03T05:11:39.065Z,17.23
2019-04-03T05:14:07.972Z,19.83
2019-04-03T05:16:36.779Z,22.13
2019-04-03T05:19:10.008Z,23.17
2019-04-03T05:21:36.160Z,22.83
2019-04-03T05:24:11.481Z,24.57
2019-04-03T05:26:36.303Z,25.27
2019-04-03T05:29:05.095Z,27.60
2019-04-03T05:31:33.751Z,31.13
2019-04-03T05:34:02.721Z,25.33
2019-04-03T05:36:31.415Z,25.63
2019-04-03T05:39:02.585Z,28.97
2019-04-03T05:41:30.857Z,25.10
2019-04-03T05:44:01.459Z,21.70
2019-04-03T05:46:30.111Z,21.50
2019-04-03T05:48:58.760Z,25.10
2019-04-03T05:51:29.153Z,21.20
2019-04-03T05:53:58.031Z,17.70
2019-04-03T05:56:26.618Z,17.90
2019-04-03T05:58:57.242Z,25.10
2019-04-03T06:01:25.897Z,18.83
2019-04-03T06:03:54.550Z,19.30
2019-04-03T06:06:23.341Z,33.00
2019-04-03T06:08:52.074Z,22.60
2019-04-03T06:11:21.190Z,26.87
2019-04-03T06:13:50.350Z,21.30
2019-04-03T06:16:19.096Z,25.70
2019-04-03T06:18:48.238Z,14.63
2019-04-03T06:21:17.049Z,13.23
2019-04-03T06:23:45.727Z,10.90
2019-04-03T06:26:14.349Z,11.60
2019-04-03T06:28:44.960Z,11.63
2019-04-03T06:31:13.671Z,12.37
2019-04-03T06:33:42.374Z,9.03
2019-04-03T06:36:10.944Z,9.23
2019-04-03T06:38:39.492Z,11.27
2019-04-03T06:41:09.085Z,15.83
2019-04-03T06:43:38.047Z,11.77
2019-04-03T06:46:06.828Z,14.63
2019-04-03T06:48:36.502Z,11.27
2019-04-03T06:51:06.065Z,14.17
2019-04-03T06:53:34.809Z,12.07
2019-04-03T06:56:07.666Z,9.10
2019-04-03T06:58:38.627Z,13.83
2019-04-03T07:01:06.309Z,9.47
2019-04-03T07:03:35.146Z,14.83
2019-04-03T07:06:03.819Z,12.40
2019-04-03T07:08:35.649Z,8.80
2019-04-03T07:11:03.056Z,9.43
2019-04-03T07:13:31.830Z,9.13
2019-04-03T07:16:00.622Z,11.23
2019-04-03T07:18:29.321Z,11.07
2019-04-03T07:20:57.972Z,13.57
2019-04-03T07:23:28.977Z,7.23
2019-04-03T07:25:57.343Z,12.37
2019-04-03T07:28:25.922Z,7.60
2019-04-03T07:30:54.582Z,8.67
2019-04-03T07:33:23.378Z,7.83
2019-04-03T07:35:52.062Z,6.60
2019-04-03T07:38:21.837Z,8.43
2019-04-03T07:40:52.370Z,10.60
2019-04-03T07:43:21.551Z,10.17
2019-04-03T07:45:50.218Z,9.23
2019-04-03T07:48:18.869Z,8.40
2019-04-03T07:50:47.838Z,8.60
2019-04-03T07:53:17.834Z,10.20
2019-04-03T07:55:47.152Z,9.87
2019-04-03T07:58:15.849Z,9.03
2019-04-03T08:00:44.515Z,11.20
2019-04-03T08:03:13.295Z,18.43
2019-04-03T08:05:41.955Z,8.23
2019-04-03T08:08:10.635Z,10.70
2019-04-03T08:10:39.411Z,10.03
2019-04-03T08:13:07.985Z,6.70
2019-04-03T08:15:36.660Z,9.17
2019-04-03T08:18:05.440Z,5.80
2019-04-03T08:20:34.230Z,10.83
2019-04-03T08:23:05.969Z,12.40
2019-04-03T08:25:33.683Z,10.47
2019-04-03T08:28:02.384Z,9.50
2019-04-03T08:30:31.142Z,9.30
2019-04-03T08:32:59.727Z,10.00
2019-04-03T08:35:28.655Z,10.73
2019-04-03T08:37:57.369Z,9.43
2019-04-03T08:40:26.016Z,6.33
2019-04-03T08:42:54.683Z,7.13
2019-04-03T08:45:23.364Z,7.27
2019-04-03T08:47:52.321Z,7.90
2019-04-03T08:50:21.324Z,5.43
2019-04-03T08:52:50.165Z,6.73
2019-04-03T08:55:18.809Z,10.77
2019-04-03T08:57:47.367Z,5.63
2019-04-03T09:00:16.626Z,7.87
2019-04-03T09:02:45.442Z,8.33
2019-04-03T09:05:14.697Z,7.63
2019-04-03T09:07:44.110Z,7.90
2019-04-03T09:10:13.186Z,6.40
2019-04-03T09:12:42.068Z,7.27
2019-04-03T09:15:11.321Z,8.07
2019-04-03T09:17:39.990Z,9.30
2019-04-03T09:20:08.910Z,10.67
2019-04-03T09:22:37.560Z,8.30
2019-04-03T09:25:07.066Z,10.87
2019-04-03T09:27:35.904Z,10.90
2019-04-03T09:30:07.525Z,8.77
2019-04-03T09:32:37.428Z,9.27
2019-04-03T09:35:08.191Z,6.80
2019-04-03T09:37:38.107Z,9.07
2019-04-03T09:40:07.306Z,6.30
2019-04-03T09:42:36.156Z,7.87
2019-04-03T09:45:06.184Z,10.07
2019-04-03T09:47:35.670Z,7.43
2019-04-03T09:50:05.703Z,14.17
2019-04-03T09:52:41.513Z,12.23
2019-04-03T09:55:05.759Z,6.60
2019-04-03T09:57:34.432Z,6.47
2019-04-03T10:00:05.513Z,10.87
2019-04-03T10:02:34.543Z,9.37
2019-04-03T10:05:04.548Z,9.97
2019-04-03T10:07:36.003Z,13.17
2019-04-03T10:10:05.385Z,6.27
2019-04-03T10:12:34.326Z,7.63
2019-04-03T10:15:04.058Z,10.00
2019-04-03T10:17:32.603Z,10.13
2019-04-03T10:20:01.490Z,6.30
2019-04-03T10:22:30.572Z,5.47
2019-04-03T10:25:00.614Z,5.97
2019-04-03T10:27:30.280Z,7.17
2019-04-03T10:29:58.998Z,6.87
2019-04-03T10:32:28.502Z,9.97
2019-04-03T10:34:57.836Z,5.10
2019-04-03T10:37:26.870Z,7.03
2019-04-03T10:39:55.957Z,6.43
2019-04-03T10:42:24.802Z,8.47
2019-04-03T10:44:53.540Z,6.10
2019-04-03T10:47:25.320Z,9.67
2019-04-03T10:49:52.757Z,11.50
2019-04-03T10:52:21.532Z,7.00
2019-04-03T10:54:50.480Z,6.93
2019-04-03T10:57:19.186Z,9.73
2019-04-03T10:59:51.924Z,10.03
2019-04-03T11:02:18.577Z,9.57
2019-04-03T11:04:47.510Z,5.50
2019-04-03T11:07:16.892Z,7.13
2019-04-03T11:09:45.663Z,11.03
2019-04-03T11:12:14.746Z,8.80
2019-04-03T11:14:43.857Z,7.57
2019-04-03T11:17:12.654Z,6.20
2019-04-03T11:19:44.101Z,8.47
2019-04-03T11:22:12.078Z,8.30
2019-04-03T11:24:42.505Z,6.37
2019-04-03T11:27:11.342Z,6.57
2019-04-03T11:29:41.910Z,7.40
2019-04-03T11:32:10.840Z,5.63
2019-04-03T11:34:39.629Z,7.47
2019-04-03T11:37:08.403Z,8.07
2019-04-03T11:39:37.818Z,8.07
2019-04-03T11:42:06.832Z,7.70
2019-04-03T11:44:35.363Z,11.13
2019-04-03T11:47:04.504Z,8.73
2019-04-03T11:49:33.286Z,8.33
2019-04-03T11:52:02.269Z,10.17
2019-04-03T11:54:31.112Z,12.93
2019-04-03T11:56:59.924Z,9.37
2019-04-03T11:59:28.757Z,6.00
2019-04-03T12:01:57.623Z,8.77
2019-04-03T12:04:26.952Z,9.20
2019-04-03T12:06:55.804Z,10.60
2019-04-03T12:09:24.957Z,5.97
2019-04-03T12:11:54.985Z,8.50
2019-04-03T12:14:24.257Z,9.60
2019-04-03T12:16:53.117Z,9.37
2019-04-03T12:19:21.975Z,5.93
2019-04-03T12:21:51.296Z,6.63
2019-04-03T12:24:20.334Z,6.33
2019-04-03T12:26:51.739Z,8.77
2019-04-03T12:29:21.904Z,8.47
2019-04-03T12:31:51.234Z,5.57
2019-04-03T12:34:22.993Z,8.73
2019-04-03T12:36:51.516Z,8.93
2019-04-03T12:39:26.944Z,4.50
2019-04-03T12:41:57.231Z,6.97
2019-04-03T12:44:26.591Z,5.07
2019-04-03T12:46:55.749Z,6.23
2019-04-03T12:49:25.067Z,6.47
2019-04-03T12:51:53.937Z,5.57
2019-04-03T12:54:22.613Z,6.47
2019-04-03T12:56:51.431Z,10.90
2019-04-03T12:59:21.031Z,8.40
2019-04-03T13:01:50.746Z,5.73
2019-04-03T13:04:20.088Z,6.23
2019-04-03T13:06:49.053Z,5.17
2019-04-03T13:09:18.389Z,7.00
2019-04-03T13:11:49.802Z,7.83
2019-04-03T13:14:25.106Z,4.97
2019-04-03T13:16:48.876Z,8.90
2019-04-03T13:19:17.622Z,8.27
2019-04-03T13:21:46.276Z,5.30
2019-04-03T13:24:17.105Z,7.07
2019-04-03T13:26:45.960Z,8.73
2019-04-03T13:29:14.694Z,9.07
2019-04-03T13:31:44.458Z,5.23
2019-04-03T13:34:14.346Z,7.37
2019-04-03T13:36:43.240Z,4.03
2019-04-03T13:39:12.418Z,4.77
2019-04-03T13:41:42.476Z,6.43
2019-04-03T13:44:11.711Z,9.13
2019-04-03T13:46:40.377Z,6.30
2019-04-03T13:49:09.448Z,7.10
2019-04-03T13:51:38.415Z,5.40
2019-04-03T13:54:08.188Z,8.57
2019-04-03T13:56:37.916Z,8.20
2019-04-03T13:59:06.880Z,4.90
2019-04-03T14:01:35.761Z,7.70
2019-04-03T14:04:04.891Z,6.37
2019-04-03T14:06:35.918Z,4.73
2019-04-03T14:09:06.469Z,4.93
2019-04-03T14:11:35.541Z,5.87
2019-04-03T14:14:04.362Z,4.97
2019-04-03T14:16:34.897Z,7.97
2019-04-03T14:19:04.139Z,4.90
2019-04-03T14:21:35.561Z,6.43
2019-04-03T14:24:07.073Z,5.27
2019-04-03T14:26:34.539Z,5.37
2019-04-03T14:29:05.720Z,6.00
2019-04-03T14:31:37.350Z,4.97
2019-04-03T14:34:05.156Z,4.20
2019-04-03T14:36:34.713Z,4.93
2019-04-03T14:39:08.757Z,6.63
2019-04-03T14:41:36.683Z,5.37
2019-04-03T14:44:07.785Z,6.90
2019-04-03T14:46:36.303Z,5.70
2019-04-03T14:49:04.941Z,4.93
2019-04-03T14:51:33.736Z,5.90
2019-04-03T14:54:03.266Z,4.40
2019-04-03T14:56:33.250Z,7.30
2019-04-03T14:59:02.651Z,7.30
2019-04-03T15:01:31.317Z,5.67
2019-04-03T15:04:01.139Z,6.07
2019-04-03T15:06:30.340Z,6.43
2019-04-03T15:08:59.167Z,7.60
2019-04-03T15:11:27.869Z,6.00
2019-04-03T15:13:57.403Z,10.73
2019-04-03T15:16:26.435Z,8.27
2019-04-03T15:18:55.053Z,5.90
2019-04-03T15:21:24.793Z,5.70
2019-04-03T15:23:54.170Z,6.87
2019-04-03T15:26:23.128Z,5.47
2019-04-03T15:28:52.560Z,6.87
2019-04-03T15:31:23.877Z,5.83
2019-04-03T15:33:53.039Z,6.30
2019-04-03T15:36:22.757Z,7.93
2019-04-03T15:38:51.451Z,5.47
2019-04-03T15:41:20.654Z,7.20
2019-04-03T15:43:51.337Z,5.40
2019-04-03T15:46:19.952Z,9.20
2019-04-03T15:48:48.807Z,3.97
2019-04-03T15:51:17.794Z,6.93
2019-04-03T15:53:46.941Z,8.50
2019-04-03T15:56:16.738Z,7.73
2019-04-03T15:58:45.667Z,6.80
2019-04-03T16:01:14.396Z,6.20
2019-04-03T16:03:43.329Z,8.27
2019-04-03T16:06:12.046Z,9.03
2019-04-03T16:08:43.657Z,9.07
2019-04-03T16:11:11.515Z,6.37
2019-04-03T16:13:40.164Z,7.07
2019-04-03T16:16:09.456Z,6.23
2019-04-03T16:18:38.991Z,9.03
2019-04-03T16:21:07.883Z,8.47
2019-04-03T16:23:38.188Z,5.70
2019-04-03T16:26:07.802Z,4.90
2019-04-03T16:28:37.178Z,6.50
2019-04-03T16:31:06.321Z,7.00
2019-04-03T16:33:35.715Z,12.77
2019-04-03T16:36:06.893Z,9.97
2019-04-03T16:38:36.472Z,11.90
2019-04-03T16:41:05.861Z,13.93
2019-04-03T16:43:34.712Z,19.07
2019-04-03T16:46:03.537Z,22.70
2019-04-03T16:48:32.228Z,22.90
2019-04-03T16:51:01.593Z,27.90
2019-04-03T16:53:30.361Z,18.20
2019-04-03T16:55:58.896Z,18.77
2019-04-03T16:58:27.971Z,18.67
2019-04-03T17:00:56.596Z,20.17
2019-04-03T17:03:27.345Z,14.87
2019-04-03T17:05:56.498Z,10.77
2019-04-03T17:08:25.961Z,15.43
2019-04-03T17:10:56.242Z,18.27
2019-04-03T17:13:25.590Z,15.30
2019-04-03T17:15:55.074Z,13.13
2019-04-03T17:18:23.834Z,11.67
2019-04-03T17:20:53.211Z,9.07
2019-04-03T17:23:23.388Z,11.10
2019-04-03T17:25:52.428Z,4.70
2019-04-03T17:28:21.228Z,9.23
2019-04-03T17:30:51.524Z,7.43
2019-04-03T17:33:21.247Z,7.43
2019-04-03T17:35:50.238Z,8.17
2019-04-03T17:38:19.123Z,10.03
2019-04-03T17:40:47.970Z,7.00
2019-04-03T17:43:17.029Z,5.83
2019-04-03T17:45:46.949Z,9.67
2019-04-03T17:48:15.657Z,7.30
2019-04-03T17:50:44.598Z,9.17
2019-04-03T17:53:13.353Z,8.70
2019-04-03T17:55:45.273Z,5.40
2019-04-03T17:58:16.537Z,11.40
2019-04-03T18:00:44.147Z,8.93
2019-04-03T18:03:12.900Z,11.87
2019-04-03T18:05:41.568Z,13.67
2019-04-03T18:08:10.911Z,8.87
2019-04-03T18:10:40.847Z,9.60
2019-04-03T18:13:10.339Z,11.10
2019-04-03T18:15:39.098Z,14.07
2019-04-03T18:18:08.000Z,12.80
2019-04-03T18:20:36.521Z,16.73
2019-04-03T18:23:05.270Z,16.57
2019-04-03T18:25:34.674Z,21.30
2019-04-03T18:28:05.378Z,14.03
2019-04-03T18:30:34.401Z,18.00
2019-04-03T18:33:05.551Z,22.00
2019-04-03T18:35:34.040Z,25.47
2019-04-03T18:38:03.031Z,26.87
2019-04-03T18:40:31.704Z,22.37
2019-04-03T18:43:00.861Z,21.97
2019-04-03T18:45:29.508Z,21.33
2019-04-03T18:47:58.354Z,12.00
2019-04-03T18:50:27.482Z,12.53
2019-04-03T18:52:56.660Z,14.30
2019-04-03T18:55:25.327Z,10.97
2019-04-03T18:57:54.010Z,8.27
2019-04-03T19:00:22.716Z,13.70
2019-04-03T19:02:51.495Z,9.23
2019-04-03T19:05:20.444Z,10.70
2019-04-03T19:07:49.022Z,9.00
2019-04-03T19:10:18.679Z,14.77
2019-04-03T19:12:48.335Z,7.63
2019-04-03T19:15:17.187Z,10.27
2019-04-03T19:17:59.013Z,10.40
2019-04-03T19:20:17.984Z,10.07
2019-04-03T19:22:46.639Z,9.07
2019-04-03T19:25:15.466Z,8.87
2019-04-03T19:27:44.100Z,11.13
2019-04-03T19:30:14.836Z,8.60
2019-04-03T19:32:44.114Z,12.17
2019-04-03T19:35:13.197Z,13.17
2019-04-03T19:37:45.061Z,13.77
2019-04-03T19:40:13.501Z,11.30
2019-04-03T19:42:43.850Z,10.40
2019-04-03T19:45:13.387Z,12.53
2019-04-03T19:47:42.134Z,13.70
2019-04-03T19:50:11.430Z,10.97
2019-04-03T19:52:42.185Z,13.80
2019-04-03T19:55:10.831Z,10.47
2019-04-03T19:57:39.868Z,7.90
2019-04-03T20:00:11.266Z,10.00
2019-04-03T20:02:43.125Z,14.37
2019-04-03T20:05:11.416Z,9.37
2019-04-03T20:07:40.077Z,10.27
2019-04-03T20:10:09.324Z,9.60
2019-04-03T20:12:38.482Z,8.93
2019-04-03T20:15:09.167Z,9.33
2019-04-03T20:17:37.897Z,8.77
2019-04-03T20:20:07.025Z,8.13
2019-04-03T20:22:37.426Z,16.20
2019-04-03T20:25:07.445Z,9.60
2019-04-03T20:27:36.600Z,9.93
2019-04-03T20:30:06.041Z,10.30
2019-04-03T20:32:34.587Z,8.10
2019-04-03T20:35:04.309Z,7.47
2019-04-03T20:37:33.066Z,7.10
2019-04-03T20:40:01.756Z,7.13
2019-04-03T20:42:30.592Z,10.20
2019-04-03T20:44:59.227Z,10.87
2019-04-03T20:47:28.120Z,7.23
2019-04-03T20:49:57.159Z,8.20
2019-04-03T20:52:25.733Z,11.47
2019-04-03T20:54:54.377Z,10.53
2019-04-03T20:57:23.247Z,8.13
2019-04-03T21:00:01.652Z,7.43
2019-04-03T21:02:22.911Z,8.57
2019-04-03T21:04:52.197Z,9.77
2019-04-03T21:07:23.623Z,7.03
2019-04-03T21:09:51.717Z,6.27
2019-04-03T21:12:20.376Z,6.60
2019-04-03T21:14:49.392Z,6.30
2019-04-03T21:17:19.032Z,7.13
2019-04-03T21:19:49.954Z,7.70
2019-04-03T21:22:18.916Z,6.40
2019-04-03T21:24:47.534Z,6.63
2019-04-03T21:27:16.314Z,8.77
2019-04-03T21:29:45.603Z,6.03
2019-04-03T21:32:14.460Z,8.03
2019-04-03T21:34:43.126Z,6.03
2019-04-03T21:37:13.979Z,11.57
2019-04-03T21:39:43.795Z,5.77
2019-04-03T21:42:13.237Z,7.77
2019-04-03T21:44:42.343Z,7.30
2019-04-03T21:47:11.738Z,7.40
2019-04-03T21:49:41.362Z,6.10
2019-04-03T21:52:10.280Z,7.53
2019-04-03T21:54:38.939Z,8.87
2019-04-03T21:57:07.682Z,7.17
2019-04-03T21:59:36.527Z,7.90
2019-04-03T22:02:05.071Z,7.93
2019-04-03T22:04:34.150Z,4.77
2019-04-03T22:07:03.016Z,5.77
2019-04-03T22:09:32.072Z,5.83
2019-04-03T22:12:01.060Z,6.43
2019-04-03T22:14:29.723Z,9.43
2019-04-03T22:16:58.478Z,7.27
2019-04-03T22:19:27.691Z,8.03
2019-04-03T22:21:56.875Z,4.30
2019-04-03T22:24:25.532Z,4.63
2019-04-03T22:26:54.151Z,6.73
2019-04-03T22:29:22.798Z,5.87
2019-04-03T22:31:53.639Z,5.33
2019-04-03T22:34:22.141Z,6.37
2019-04-03T22:36:50.775Z,5.27
2019-04-03T22:39:19.424Z,6.20
2019-04-03T22:41:48.281Z,4.00
2019-04-03T22:44:17.662Z,4.17
2019-04-03T22:46:46.485Z,5.50
2019-04-03T22:49:15.126Z,5.30
2019-04-03T22:51:43.695Z,4.03
2019-04-03T22:54:12.758Z,6.83
2019-04-03T22:56:41.908Z,5.63
2019-04-03T22:59:10.575Z,5.53
2019-04-03T23:01:39.397Z,4.00
2019-04-03T23:04:08.061Z,3.30
2019-04-03T23:06:36.613Z,4.03
2019-04-03T23:09:06.796Z,5.77
2019-04-03T23:11:35.363Z,4.73
2019-04-03T23:14:06.797Z,5.77
2019-04-03T23:16:35.478Z,4.40
2019-04-03T23:19:04.018Z,8.63
2019-04-03T23:21:32.567Z,18.60
2019-04-03T23:24:01.333Z,18.20
2019-04-03T23:26:32.162Z,11.27
2019-04-03T23:29:00.642Z,8.60
2019-04-03T23:31:29.207Z,15.13
2019-04-03T23:33:58.162Z,12.97
2019-04-03T23:36:26.814Z,12.13
2019-04-03T23:38:56.707Z,13.93
2019-04-03T23:41:25.758Z,14.27
2019-04-03T23:43:54.300Z,12.20
2019-04-03T23:46:22.967Z,10.90
2019-04-03T23:48:51.548Z,13.93
2019-04-03T23:51:23.249Z,11.20
2019-04-03T23:53:51.075Z,10.60
2019-04-03T23:56:19.731Z,11.37
2019-04-03T23:58:48.380Z,7.17
